createdAt,value
2019-05-09T00:03:57.816Z,95323.29
2019-05-09T00:06:26.458Z,95327.14
2019-05-09T00:08:55.121Z,95320.44
2019-05-09T00:11:24.594Z,95326.66
2019-05-09T00:13:54.186Z,95326.42
2019-05-09T00:16:23.501Z,95327.54
2019-05-09T00:18:54.036Z,95322.28
2019-05-09T00:21:43.727Z,95314.36
2019-05-09T00:24:13.901Z,95317.45
2019-05-09T00:26:44.294Z,95320.84
2019-05-09T00:29:33.505Z,95329.88
2019-05-09T00:32:21.318Z,95323.48
2019-05-09T00:35:09.122Z,95327.88
2019-05-09T00:37:56.885Z,95326.97
2019-05-09T00:41:05.351Z,95333.59
2019-05-09T00:43:34.311Z,95324.24
2019-05-09T00:48:59.242Z,95328.30
2019-05-09T00:51:27.853Z,95326.56
2019-05-09T00:53:56.509Z,95325.88
2019-05-09T00:56:25.063Z,95325.45
2019-05-09T00:58:53.867Z,95329.50
2019-05-09T01:01:24.027Z,95330.06
2019-05-09T01:03:53.509Z,95319.72
2019-05-09T01:06:24.139Z,95317.94
2019-05-09T01:08:53.959Z,95315.05
2019-05-09T01:11:24.574Z,95304.12
2019-05-09T01:16:48.934Z,95302.41
2019-05-09T01:19:17.491Z,95300.12
2019-05-09T01:21:46.127Z,95295.53
2019-05-09T01:24:14.822Z,95293.45
2019-05-09T01:26:43.680Z,95295.63
2019-05-09T01:29:13.978Z,95305.66
2019-05-09T01:31:43.548Z,95304.38
2019-05-09T01:34:53.092Z,95307.82
2019-05-09T01:40:16.201Z,95310.17
2019-05-09T01:42:44.777Z,95304.75
2019-05-09T01:45:14.210Z,95307.80
2019-05-09T01:47:43.996Z,95301.39
2019-05-09T01:50:14.011Z,95303.15
2019-05-09T01:52:43.910Z,95301.89
2019-05-09T01:55:14.307Z,95304.11
2019-05-09T01:57:47.233Z,95303.52
2019-05-09T02:00:14.506Z,95307.23
2019-05-09T02:02:43.358Z,95296.00
2019-05-09T02:05:53.126Z,95290.13
2019-05-09T02:08:23.652Z,95295.88
2019-05-09T02:10:54.240Z,95300.23
2019-05-09T02:13:23.288Z,95297.83
2019-05-09T02:16:11.102Z,95298.80
2019-05-09T02:21:15.308Z,95297.97
2019-05-09T02:23:43.989Z,95303.63
2019-05-09T02:26:13.543Z,95296.54
2019-05-09T02:28:43.409Z,95279.73
2019-05-09T02:31:16.354Z,95283.34
2019-05-09T02:33:45.417Z,95280.66
2019-05-09T02:36:14.056Z,95280.15
2019-05-09T02:38:42.676Z,95283.03
2019-05-09T02:41:11.355Z,95276.66
2019-05-09T02:43:40.004Z,95279.52
2019-05-09T02:48:49.507Z,95282.32
2019-05-09T02:51:18.662Z,95289.70
2019-05-09T02:53:48.744Z,95288.96
2019-05-09T02:56:19.176Z,95295.58
2019-05-09T03:01:43.727Z,95295.11
2019-05-09T03:04:12.362Z,95294.48
2019-05-09T03:06:41.037Z,95296.72
2019-05-09T03:09:09.724Z,95292.66
2019-05-09T03:11:39.037Z,95289.03
2019-05-09T03:14:09.405Z,95290.37
2019-05-09T03:16:40.074Z,95286.97
2019-05-09T03:19:09.555Z,95286.80
2019-05-09T03:21:58.441Z,95278.84
2019-05-09T03:24:28.802Z,95272.52
2019-05-09T03:27:18.731Z,95272.55
2019-05-09T03:35:21.671Z,95267.10
2019-05-09T03:38:09.358Z,95275.53
2019-05-09T03:41:17.866Z,95270.67
2019-05-09T03:43:48.319Z,95278.39
2019-05-09T03:46:38.274Z,95277.49
2019-05-09T03:52:01.035Z,95270.45
2019-05-09T03:54:29.717Z,95270.69
2019-05-09T03:57:18.020Z,95274.08
2019-05-09T03:59:48.135Z,95280.06
2019-05-09T04:02:17.821Z,95278.27
2019-05-09T04:04:47.642Z,95287.95
2019-05-09T04:07:18.657Z,95284.35
2019-05-09T04:09:48.211Z,95286.91
2019-05-09T04:15:25.087Z,95288.33
2019-05-09T04:17:53.687Z,95289.15
2019-05-09T04:20:22.269Z,95296.13
2019-05-09T04:22:50.864Z,95301.80
2019-05-09T04:28:08.780Z,95296.23
2019-05-09T04:30:37.393Z,95295.02
2019-05-09T04:33:07.320Z,95285.27
2019-05-09T04:35:38.263Z,95286.55
2019-05-09T04:38:07.447Z,95287.03
2019-05-09T04:40:44.596Z,95287.41
2019-05-09T04:43:14.279Z,95292.11
2019-05-09T04:48:47.602Z,95280.50
2019-05-09T04:51:17.991Z,95283.10
2019-05-09T04:56:57.237Z,95272.01
2019-05-09T04:59:25.444Z,95270.73
2019-05-09T05:04:29.421Z,95269.78
2019-05-09T05:06:58.693Z,95275.05
2019-05-09T05:09:28.461Z,95274.52
2019-05-09T05:11:57.977Z,95272.50
2019-05-09T05:17:17.973Z,95276.97
2019-05-09T05:19:47.763Z,95282.56
2019-05-09T05:27:34.329Z,95291.77
2019-05-09T05:30:02.993Z,95286.53
2019-05-09T05:32:50.741Z,95274.16
2019-05-09T05:35:38.393Z,95264.52
2019-05-09T05:38:08.552Z,95267.84
2019-05-09T05:40:45.570Z,95272.05
2019-05-09T05:43:08.800Z,95269.41
2019-05-09T05:48:38.346Z,95264.06
2019-05-09T05:51:08.163Z,95264.25
2019-05-09T05:53:38.124Z,95263.86
2019-05-09T05:56:08.632Z,95264.05
2019-05-09T05:58:38.778Z,95260.72
2019-05-09T06:01:08.193Z,95258.19
2019-05-09T06:03:37.872Z,95264.59
2019-05-09T06:06:08.589Z,95263.76
2019-05-09T06:08:38.015Z,95268.83
2019-05-09T06:11:11.756Z,95270.72
2019-05-09T06:13:38.028Z,95268.17
2019-05-09T06:16:08.733Z,95271.78
2019-05-09T06:18:38.592Z,95268.72
2019-05-09T06:21:08.833Z,95267.02
2019-05-09T06:23:37.594Z,95270.05
2019-05-09T06:26:10.005Z,95262.12
2019-05-09T06:28:37.678Z,95269.05
2019-05-09T06:31:07.649Z,95274.22
2019-05-09T06:33:44.876Z,95269.47
2019-05-09T06:36:08.032Z,95264.62
2019-05-09T06:38:37.730Z,95263.25
2019-05-09T06:41:08.830Z,95261.67
2019-05-09T06:44:11.076Z,95260.11
2019-05-09T06:51:52.068Z,95254.90
2019-05-09T06:54:20.713Z,95258.97
2019-05-09T06:56:49.393Z,95265.30
2019-05-09T06:59:19.098Z,95262.20
2019-05-09T07:12:43.181Z,95253.69
2019-05-09T07:15:11.829Z,95248.55
2019-05-09T07:17:40.308Z,95252.13
2019-05-09T07:20:09.003Z,95251.14
2019-05-09T07:25:47.846Z,95259.27
2019-05-09T07:28:18.007Z,95259.14
2019-05-09T07:31:07.719Z,95247.56
2019-05-09T07:36:27.714Z,95231.00
2019-05-09T07:38:58.061Z,95230.75
2019-05-09T07:41:28.185Z,95232.78
2019-05-09T07:43:58.323Z,95233.32
2019-05-09T07:51:37.834Z,95228.79
2019-05-09T07:54:21.158Z,95223.69
2019-05-09T07:56:37.827Z,95225.77
2019-05-09T07:59:07.804Z,95226.95
2019-05-09T08:02:17.769Z,95239.42
2019-05-09T08:04:48.882Z,95241.30
2019-05-09T08:07:18.107Z,95243.51
2019-05-09T08:09:47.565Z,95243.23
2019-05-09T08:12:17.936Z,95245.95
2019-05-09T08:15:06.615Z,95244.70
2019-05-09T08:17:18.196Z,95238.53
2019-05-09T08:19:48.567Z,95240.04
2019-05-09T08:22:24.805Z,95234.10
2019-05-09T08:24:49.066Z,95237.05
2019-05-09T08:27:17.728Z,95238.00
2019-05-09T08:29:47.883Z,95236.02
2019-05-09T08:32:18.083Z,95244.41
2019-05-09T08:34:48.233Z,95239.22
2019-05-09T08:37:17.689Z,95238.11
2019-05-09T08:39:48.483Z,95228.60
2019-05-09T08:42:17.959Z,95229.05
2019-05-09T08:44:48.263Z,95235.38
2019-05-09T08:47:18.443Z,95245.16
2019-05-09T08:50:08.002Z,95238.00
2019-05-09T08:52:37.719Z,95244.45
2019-05-09T08:55:08.523Z,95244.91
2019-05-09T08:57:38.201Z,95249.12
2019-05-09T09:00:48.412Z,95247.19
2019-05-09T09:03:18.528Z,95248.75
2019-05-09T09:05:48.583Z,95254.81
2019-05-09T09:08:18.421Z,95257.58
2019-05-09T09:10:48.937Z,95259.55
2019-05-09T09:13:18.465Z,95269.16
2019-05-09T09:16:05.666Z,95274.40
2019-05-09T09:18:18.113Z,95275.23
2019-05-09T09:20:48.527Z,95279.58
2019-05-09T09:23:18.317Z,95284.38
2019-05-09T09:25:48.553Z,95288.53
2019-05-09T09:28:18.298Z,95286.40
2019-05-09T09:30:48.547Z,95280.43
2019-05-09T09:33:18.178Z,95296.80
2019-05-09T09:35:48.937Z,95294.33
2019-05-09T09:38:17.822Z,95292.50
2019-05-09T09:40:47.920Z,95292.16
2019-05-09T09:43:17.975Z,95296.28
2019-05-09T09:45:48.039Z,95298.03
2019-05-09T09:48:18.036Z,95306.58
2019-05-09T09:50:51.298Z,95302.78
2019-05-09T09:53:18.475Z,95306.07
2019-05-09T09:55:48.171Z,95298.17
2019-05-09T09:58:18.974Z,95298.66
2019-05-09T10:01:28.761Z,95297.75
2019-05-09T10:04:23.107Z,95296.89
2019-05-09T10:07:27.935Z,95290.47
2019-05-09T10:09:58.374Z,95288.02
2019-05-09T10:12:28.556Z,95277.27
2019-05-09T10:15:18.902Z,95279.71
2019-05-09T10:18:07.486Z,95257.34
2019-05-09T10:20:58.412Z,95262.98
2019-05-09T10:23:26.367Z,95257.05
2019-05-09T10:25:54.943Z,95255.35
2019-05-09T10:28:23.731Z,95255.05
2019-05-09T10:30:52.348Z,95253.31
2019-05-09T10:33:20.997Z,95248.22
2019-05-09T10:35:49.690Z,95253.91
2019-05-09T10:38:18.644Z,95248.34
2019-05-09T10:40:48.962Z,95236.09
2019-05-09T10:46:16.348Z,95240.80
2019-05-09T10:51:33.539Z,95228.93
2019-05-09T10:54:02.156Z,95220.55
2019-05-09T10:56:30.888Z,95225.67
2019-05-09T10:58:59.462Z,95213.03
2019-05-09T11:01:29.411Z,95220.05
2019-05-09T11:03:59.131Z,95211.67
2019-05-09T11:06:29.146Z,95197.48
2019-05-09T11:08:59.146Z,95200.70
2019-05-09T11:14:32.201Z,95198.86
2019-05-09T11:16:54.279Z,95194.17
2019-05-09T11:22:18.480Z,95198.20
2019-05-09T11:24:50.973Z,95195.41
2019-05-09T11:27:18.658Z,95196.81
2019-05-09T11:29:49.809Z,95186.83
2019-05-09T11:32:18.118Z,95191.50
2019-05-09T11:34:48.613Z,95191.03
2019-05-09T11:37:17.242Z,95182.55
2019-05-09T11:39:48.041Z,95182.67
2019-05-09T11:42:17.791Z,95186.39
2019-05-09T11:44:46.555Z,95172.80
2019-05-09T11:47:28.538Z,95171.22
2019-05-09T11:49:48.019Z,95171.41
2019-05-09T11:52:18.308Z,95182.02
2019-05-09T11:54:48.237Z,95176.61
2019-05-09T11:57:18.944Z,95175.87
2019-05-09T11:59:48.018Z,95166.44
2019-05-09T12:02:18.042Z,95165.00
2019-05-09T12:04:48.707Z,95164.05
2019-05-09T12:07:18.136Z,95170.91
2019-05-09T12:09:48.923Z,95172.19
2019-05-09T12:12:19.323Z,95171.38
2019-05-09T12:14:48.404Z,95178.13
2019-05-09T12:17:19.584Z,95183.13
2019-05-09T12:19:48.912Z,95179.18
2019-05-09T12:22:19.288Z,95191.98
2019-05-09T12:24:48.953Z,95192.61
2019-05-09T12:27:18.747Z,95200.07
2019-05-09T12:29:48.420Z,95205.38
2019-05-09T12:32:18.824Z,95205.40
2019-05-09T12:34:48.806Z,95216.72
2019-05-09T12:37:18.232Z,95211.61
2019-05-09T12:39:48.198Z,95223.70
2019-05-09T12:42:18.760Z,95226.50
2019-05-09T12:44:49.555Z,95222.45
2019-05-09T12:47:19.216Z,95224.51
2019-05-09T12:49:49.393Z,95219.98
2019-05-09T12:52:18.682Z,95227.97
2019-05-09T12:54:48.530Z,95226.30
2019-05-09T12:57:19.243Z,95226.08
2019-05-09T12:59:52.205Z,95214.87
2019-05-09T13:02:17.954Z,95217.73
2019-05-09T13:04:47.671Z,95218.89
2019-05-09T13:07:16.962Z,95215.30
2019-05-09T13:09:52.208Z,95213.48
2019-05-09T13:12:18.019Z,95217.52
2019-05-09T13:14:48.448Z,95214.11
2019-05-09T13:19:52.666Z,95212.63
2019-05-09T13:22:21.292Z,95205.59
2019-05-09T13:24:49.868Z,95201.95
2019-05-09T13:27:19.100Z,95197.89
2019-05-09T13:29:49.523Z,95207.77
2019-05-09T13:32:19.317Z,95208.17
2019-05-09T13:34:48.634Z,95204.60
2019-05-09T13:37:19.021Z,95209.02
2019-05-09T13:39:48.642Z,95204.16
2019-05-09T13:42:19.569Z,95201.98
2019-05-09T13:44:47.700Z,95201.39
2019-05-09T13:47:17.872Z,95206.92
2019-05-09T13:49:48.474Z,95205.59
2019-05-09T13:52:17.977Z,95205.85
2019-05-09T13:54:48.272Z,95197.27
2019-05-09T13:57:18.942Z,95203.02
2019-05-09T13:59:48.800Z,95198.55
2019-05-09T14:02:19.086Z,95209.64
2019-05-09T14:04:49.220Z,95208.53
2019-05-09T14:07:19.341Z,95208.13
2019-05-09T14:09:48.532Z,95203.27
2019-05-09T14:12:18.553Z,95200.94
2019-05-09T14:14:47.240Z,95209.67
2019-05-09T14:17:18.711Z,95214.23
2019-05-09T14:19:50.360Z,95228.89
2019-05-09T14:22:17.955Z,95238.01
2019-05-09T14:24:48.355Z,95252.95
2019-05-09T14:27:18.683Z,95253.70
2019-05-09T14:29:49.762Z,95261.95
2019-05-09T14:32:17.991Z,95263.86
2019-05-09T14:34:48.248Z,95264.44
2019-05-09T14:37:17.998Z,95278.31
2019-05-09T14:39:57.768Z,95276.88
2019-05-09T14:42:18.793Z,95270.89
2019-05-09T14:44:48.150Z,95281.03
2019-05-09T14:47:17.653Z,95278.17
2019-05-09T14:49:49.733Z,95278.06
2019-05-09T14:52:17.598Z,95280.59
2019-05-09T14:54:48.260Z,95283.50
2019-05-09T14:57:17.546Z,95284.44
2019-05-09T14:59:47.052Z,95298.88
2019-05-09T15:02:17.934Z,95286.73
2019-05-09T15:04:48.412Z,95289.41
2019-05-09T15:07:18.651Z,95286.83
2019-05-09T15:09:46.868Z,95280.61
2019-05-09T15:12:15.513Z,95288.19
2019-05-09T15:14:44.198Z,95282.70
2019-05-09T15:17:12.853Z,95287.56
2019-05-09T15:19:56.566Z,95294.39
2019-05-09T15:24:50.993Z,95285.38
2019-05-09T15:27:19.699Z,95287.56
2019-05-09T15:29:48.711Z,95288.19
2019-05-09T15:32:18.614Z,95287.77
2019-05-09T15:34:47.296Z,95296.08
2019-05-09T15:37:18.393Z,95281.77
2019-05-09T15:39:48.400Z,95291.77
2019-05-09T15:42:18.257Z,95292.22
2019-05-09T15:44:47.725Z,95298.07
2019-05-09T15:50:27.812Z,95308.45
2019-05-09T15:52:57.929Z,95320.73
2019-05-09T15:55:28.262Z,95309.88
2019-05-09T15:57:57.752Z,95314.13
2019-05-09T16:00:28.413Z,95322.17
2019-05-09T16:02:58.970Z,95318.37
2019-05-09T16:05:28.347Z,95326.95
2019-05-09T16:07:58.574Z,95327.20
2019-05-09T16:10:28.305Z,95329.88
2019-05-09T16:12:57.828Z,95332.84
2019-05-09T16:15:28.604Z,95339.20
2019-05-09T16:17:56.846Z,95327.61
2019-05-09T16:20:36.905Z,95331.84
2019-05-09T16:22:57.235Z,95331.50
2019-05-09T16:25:28.348Z,95336.16
2019-05-09T16:27:58.683Z,95336.16
2019-05-09T16:30:27.565Z,95338.29
2019-05-09T16:32:58.626Z,95339.61
2019-05-09T16:35:28.588Z,95346.13
2019-05-09T16:38:06.070Z,95345.11
2019-05-09T16:40:28.526Z,95347.17
2019-05-09T16:42:58.098Z,95345.63
2019-05-09T16:45:28.746Z,95350.48
2019-05-09T16:47:57.906Z,95341.75
2019-05-09T16:50:26.538Z,95351.44
2019-05-09T16:52:58.256Z,95362.83
2019-05-09T16:58:14.833Z,95373.39
2019-05-09T17:01:02.819Z,95370.56
2019-05-09T17:03:31.505Z,95382.53
2019-05-09T17:06:00.014Z,95389.42
2019-05-09T17:08:28.690Z,95385.28
2019-05-09T17:10:58.674Z,95392.15
2019-05-09T17:13:28.935Z,95388.45
2019-05-09T17:15:58.113Z,95398.67
2019-05-09T17:18:28.280Z,95395.55
2019-05-09T17:26:21.889Z,95399.58
2019-05-09T17:28:50.475Z,95407.54
2019-05-09T17:31:19.229Z,95414.04
2019-05-09T17:33:48.651Z,95414.53
2019-05-09T17:36:18.385Z,95413.67
2019-05-09T17:38:47.781Z,95418.20
2019-05-09T17:41:17.841Z,95421.23
2019-05-09T17:43:47.701Z,95426.33
2019-05-09T17:46:18.921Z,95427.67
2019-05-09T17:48:47.934Z,95428.87
2019-05-09T17:51:31.654Z,95445.02
2019-05-09T17:53:51.866Z,95450.63
2019-05-09T17:56:17.968Z,95455.70
2019-05-09T17:58:48.537Z,95462.59
2019-05-09T18:01:17.983Z,95455.63
2019-05-09T18:03:48.208Z,95461.59
2019-05-09T18:06:19.132Z,95463.75
2019-05-09T18:08:48.536Z,95468.16
2019-05-09T18:11:18.513Z,95471.84
2019-05-09T18:13:48.104Z,95478.80
2019-05-09T18:16:18.981Z,95489.70
2019-05-09T18:19:29.348Z,95487.13
2019-05-09T18:21:58.166Z,95488.70
2019-05-09T18:24:28.770Z,95496.55
2019-05-09T18:26:58.269Z,95493.51
2019-05-09T18:32:41.832Z,95505.57
2019-05-09T18:35:50.243Z,95513.06
2019-05-09T18:38:38.838Z,95511.95
2019-05-09T18:41:10.195Z,95515.83
2019-05-09T18:43:39.012Z,95516.52
2019-05-09T18:46:08.380Z,95518.31
2019-05-09T18:48:38.370Z,95519.37
2019-05-09T18:51:08.497Z,95530.85
2019-05-09T18:53:37.142Z,95530.72
2019-05-09T18:56:05.784Z,95540.38
2019-05-09T18:58:36.081Z,95547.69
2019-05-09T19:01:24.165Z,95548.15
2019-05-09T19:03:52.825Z,95550.98
2019-05-09T19:06:21.461Z,95561.82
2019-05-09T19:08:50.153Z,95557.96
2019-05-09T19:11:18.790Z,95565.56
2019-05-09T19:13:47.365Z,95568.66
2019-05-09T19:16:35.169Z,95568.62
2019-05-09T19:19:23.041Z,95579.46
2019-05-09T19:24:26.955Z,95585.63
2019-05-09T19:26:55.640Z,95596.94
2019-05-09T19:29:24.202Z,95591.79
2019-05-09T19:31:52.801Z,95597.08
2019-05-09T19:34:21.552Z,95599.89
2019-05-09T19:36:50.245Z,95605.53
2019-05-09T19:39:18.946Z,95606.04
2019-05-09T19:41:47.728Z,95621.09
2019-05-09T19:44:16.428Z,95625.05
2019-05-09T19:46:45.074Z,95625.30
2019-05-09T19:49:13.752Z,95626.85
2019-05-09T19:54:50.555Z,95636.67
2019-05-09T19:57:19.202Z,95632.97
2019-05-09T19:59:47.961Z,95635.95
2019-05-09T20:02:16.591Z,95640.25
2019-05-09T20:07:27.999Z,95647.39
2019-05-09T20:10:15.839Z,95650.78
2019-05-09T20:15:33.709Z,95659.58
2019-05-09T20:18:02.370Z,95657.86
2019-05-09T20:20:31.007Z,95664.76
2019-05-09T20:22:59.738Z,95666.11
2019-05-09T20:25:28.407Z,95670.92
2019-05-09T20:27:57.067Z,95670.88
2019-05-09T20:30:25.959Z,95681.17
2019-05-09T20:32:54.718Z,95684.42
2019-05-09T20:35:23.372Z,95682.69
2019-05-09T20:37:52.250Z,95681.55
2019-05-09T20:40:21.074Z,95682.16
2019-05-09T20:42:49.933Z,95690.74
2019-05-09T20:45:18.774Z,95690.98
2019-05-09T20:47:47.616Z,95694.59
2019-05-09T20:50:16.448Z,95705.45
2019-05-09T20:52:45.295Z,95704.47
2019-05-09T20:55:14.109Z,95708.39
2019-05-09T20:57:43.000Z,95711.67
2019-05-09T21:00:11.863Z,95714.52
2019-05-09T21:02:40.674Z,95718.14
2019-05-09T21:05:09.538Z,95716.10
2019-05-09T21:07:38.318Z,95722.68
2019-05-09T21:13:02.156Z,95730.34
2019-05-09T21:15:31.083Z,95726.23
2019-05-09T21:17:59.876Z,95730.91
2019-05-09T21:20:28.718Z,95731.14
2019-05-09T21:22:57.478Z,95732.45
2019-05-09T21:25:26.297Z,95736.28
2019-05-09T21:27:55.091Z,95739.18
2019-05-09T21:30:24.018Z,95740.46
2019-05-09T21:32:52.869Z,95739.98
2019-05-09T21:35:21.542Z,95747.22
2019-05-09T21:37:50.168Z,95746.05
2019-05-09T21:43:13.213Z,95750.08
2019-05-09T21:45:41.875Z,95749.71
2019-05-09T21:48:10.519Z,95758.01
2019-05-09T21:50:39.233Z,95757.28
2019-05-09T21:53:07.875Z,95760.90
2019-05-09T21:55:36.499Z,95764.00
2019-05-09T21:58:05.157Z,95765.34
2019-05-09T22:03:31.706Z,95772.16
2019-05-09T22:06:00.395Z,95770.37
2019-05-09T22:08:29.137Z,95777.30
2019-05-09T22:10:57.815Z,95776.02
2019-05-09T22:13:26.421Z,95785.49
2019-05-09T22:15:55.068Z,95786.30
2019-05-09T22:18:23.710Z,95788.59
2019-05-09T22:20:52.385Z,95798.66
2019-05-09T22:23:55.209Z,95797.34
2019-05-09T22:26:10.564Z,95802.61
2019-05-09T22:28:39.249Z,95813.11
2019-05-09T22:31:07.821Z,95801.83
2019-05-09T22:33:36.514Z,95809.87
2019-05-09T22:36:05.148Z,95816.03
2019-05-09T22:38:33.764Z,95824.80
2019-05-09T22:41:02.433Z,95824.05
2019-05-09T22:43:31.087Z,95817.17
2019-05-09T22:45:59.657Z,95820.58
2019-05-09T22:48:28.357Z,95820.31
2019-05-09T22:50:56.999Z,95822.64
2019-05-09T22:53:25.617Z,95825.94
2019-05-09T22:55:54.163Z,95826.27
2019-05-09T22:58:22.740Z,95830.63
2019-05-09T23:00:51.418Z,95832.22
2019-05-09T23:03:20.111Z,95828.59
2019-05-09T23:05:48.757Z,95833.75
2019-05-09T23:08:17.379Z,95842.20
2019-05-09T23:10:46.065Z,95838.62
2019-05-09T23:13:14.614Z,95843.47
2019-05-09T23:15:43.337Z,95849.39
2019-05-09T23:18:12.043Z,95844.33
2019-05-09T23:20:59.810Z,95837.61
2019-05-09T23:23:47.609Z,95834.31
2019-05-09T23:28:51.682Z,95843.56
2019-05-09T23:34:09.503Z,95840.27
2019-05-09T23:36:38.063Z,95839.06
2019-05-09T23:39:46.529Z,95843.17
2019-05-09T23:42:15.209Z,95844.44
2019-05-09T23:44:43.794Z,95843.71
2019-05-09T23:47:12.388Z,95846.29
2019-05-09T23:49:41.081Z,95852.98
2019-05-09T23:52:09.717Z,95846.84
2019-05-09T23:54:57.522Z,95854.69
2019-05-09T23:57:45.339Z,95855.50
